Time,TemperatureF,DewpointF,PressureIn,WindDirection,WindDirectionDegrees,WindSpeedMPH,WindSpeedGustMPH,Humidity,HourlyPrecipIn,Conditions,Clouds,dailyrainin,SoftwareType,DateUTC
2013-04-23 00:04:00,52.0,36.8,30.00,ENE,67,0.0,-999.0,56,-99.99,,,0.00,Acu-Link.com,2013-04-23 04:04:00,
2013-04-23 00:19:00,51.4,37.1,30.01,East,90,0.0,-999.0,58,-99.99,,,0.00,Acu-Link.com,2013-04-23 04:19:00,
2013-04-23 00:34:00,50.9,37.1,30.00,ENE,67,0.0,-999.0,59,-99.99,,,0.00,Acu-Link.com,2013-04-23 04:34:00,
2013-04-23 00:49:00,50.5,37.1,30.01,East,90,0.0,-999.0,60,-99.99,,,0.00,Acu-Link.com,2013-04-23 04:49:00,
2013-04-23 01:04:00,50.5,37.1,30.00,East,90,0.0,-999.0,60,-99.99,,,0.00,Acu-Link.com,2013-04-23 05:04:00,
2013-04-23 01:20:00,50.5,37.1,30.00,East,90,2.2,-999.0,60,-99.99,,,0.00,Acu-Link.com,2013-04-23 05:20:00,
2013-04-23 01:35:00,50.5,38.0,30.00,ESE,112,0.0,-999.0,62,-99.99,,,0.00,Acu-Link.com,2013-04-23 05:35:00,
2013-04-23 01:50:00,50.5,38.4,30.00,North,0,1.1,-999.0,63,-99.99,,,0.00,Acu-Link.com,2013-04-23 05:50:00,
2013-04-23 02:05:00,50.0,37.9,29.99,NNW,337,0.0,-999.0,63,-99.99,,,0.00,Acu-Link.com,2013-04-23 06:05:00,
2013-04-23 02:20:00,49.8,38.5,29.99,NE,45,1.1,-999.0,65,-99.99,,,0.00,Acu-Link.com,2013-04-23 06:20:00,
2013-04-23 02:35:00,49.1,38.6,29.98,East,90,0.0,-999.0,67,-99.99,,,0.00,Acu-Link.com,2013-04-23 06:35:00,
2013-04-23 02:50:00,48.7,39.0,29.98,East,90,0.0,-999.0,69,-99.99,,,0.00,Acu-Link.com,2013-04-23 06:50:00,
2013-04-23 03:05:00,48.0,39.1,29.98,ENE,67,0.0,-999.0,71,-99.99,,,0.00,Acu-Link.com,2013-04-23 07:05:00,
2013-04-23 03:20:00,48.0,39.4,29.98,East,90,0.0,-999.0,72,-99.99,,,0.00,Acu-Link.com,2013-04-23 07:20:00,
2013-04-23 03:35:00,48.2,39.6,29.97,East,90,0.0,-999.0,72,-99.99,,,0.00,Acu-Link.com,2013-04-23 07:35:00,
2013-04-23 03:51:00,48.6,40.0,29.97,South,180,0.0,-999.0,72,-99.99,,,0.00,Acu-Link.com,2013-04-23 07:51:00,
2013-04-23 04:06:00,48.6,40.3,29.97,ENE,67,1.7,-999.0,73,-99.99,,,0.00,Acu-Link.com,2013-04-23 08:06:00,
2013-04-23 04:21:00,49.1,40.8,29.97,NE,45,0.0,-999.0,73,-99.99,,,0.00,Acu-Link.com,2013-04-23 08:21:00,
2013-04-23 04:36:00,48.9,40.6,29.98,ESE,112,1.1,-999.0,73,-99.99,,,0.00,Acu-Link.com,2013-04-23 08:36:00,
2013-04-23 04:51:00,48.9,41.0,29.97,NE,45,0.0,-999.0,74,-99.99,,,0.00,Acu-Link.com,2013-04-23 08:51:00,
2013-04-23 05:06:00,48.7,41.1,29.98,ENE,67,0.0,-999.0,75,-99.99,,,0.00,Acu-Link.com,2013-04-23 09:06:00,
2013-04-23 05:21:00,48.7,41.8,29.97,NE,45,1.1,-999.0,77,-99.99,,,0.00,Acu-Link.com,2013-04-23 09:21:00,
2013-04-23 05:36:00,48.6,42.1,29.97,SSE,157,0.0,-999.0,78,-99.99,,,0.00,Acu-Link.com,2013-04-23 09:36:00,
2013-04-23 05:51:00,48.7,42.2,29.98,East,90,2.2,-999.0,78,-99.99,,,0.00,Acu-Link.com,2013-04-23 09:51:00,
2013-04-23 06:07:00,48.9,42.3,29.98,North,0,2.2,-999.0,78,-99.99,,,0.00,Acu-Link.com,2013-04-23 10:07:00,
2013-04-23 06:22:00,48.7,42.5,29.98,SSE,157,3.2,-999.0,79,-99.99,,,0.00,Acu-Link.com,2013-04-23 10:22:00,
2013-04-23 06:37:00,48.7,42.5,29.98,West,270,1.1,-999.0,79,-99.99,,,0.00,Acu-Link.com,2013-04-23 10:37:00,
2013-04-23 06:52:00,48.2,42.3,29.99,ESE,112,1.1,-999.0,80,-99.99,,,0.00,Acu-Link.com,2013-04-23 10:52:00,
2013-04-23 07:07:00,47.8,42.3,29.98,ENE,67,1.7,-999.0,81,-99.99,,,0.00,Acu-Link.com,2013-04-23 11:07:00,
2013-04-23 07:22:00,47.7,42.5,29.99,ENE,67,0.0,-999.0,82,-99.99,,,0.00,Acu-Link.com,2013-04-23 11:22:00,
2013-04-23 07:37:00,47.8,42.9,29.99,NE,45,1.1,-999.0,83,-99.99,,,0.00,Acu-Link.com,2013-04-23 11:37:00,
2013-04-23 07:52:00,48.6,43.4,29.99,NE,45,1.7,-999.0,82,-99.99,,,0.00,Acu-Link.com,2013-04-23 11:52:00,
2013-04-23 08:07:00,49.1,43.8,30.00,ESE,112,2.2,-999.0,82,-99.99,,,0.00,Acu-Link.com,2013-04-23 12:07:00,
2013-04-23 08:23:00,50.4,44.1,30.00,North,0,4.2,-999.0,79,-99.99,,,0.00,Acu-Link.com,2013-04-23 12:23:00,
2013-04-23 08:38:00,51.6,44.6,29.99,WNW,292,1.1,-999.0,77,-99.99,,,0.00,Acu-Link.com,2013-04-23 12:38:00,
2013-04-23 08:53:00,52.5,44.8,30.00,NW,315,2.7,-999.0,75,-99.99,,,0.00,Acu-Link.com,2013-04-23 12:53:00,
2013-04-23 09:08:00,53.2,45.1,30.00,NW,315,2.7,-999.0,74,-99.99,,,0.00,Acu-Link.com,2013-04-23 13:08:00,
2013-04-23 09:23:00,54.5,46.0,30.00,WSW,247,2.7,-999.0,73,-99.99,,,0.00,Acu-Link.com,2013-04-23 13:23:00,
2013-04-23 09:38:00,55.9,46.3,30.01,NNE,22,3.2,-999.0,70,-99.99,,,0.00,Acu-Link.com,2013-04-23 13:38:00,
2013-04-23 09:53:00,56.8,46.7,30.01,WSW,247,1.1,-999.0,69,-99.99,,,0.00,Acu-Link.com,2013-04-23 13:53:00,
2013-04-23 10:08:00,58.8,48.3,30.01,SW,225,1.7,-999.0,68,-99.99,,,0.00,Acu-Link.com,2013-04-23 14:08:00,
2013-04-23 10:23:00,60.4,48.2,30.01,East,90,2.7,-999.0,64,-99.99,,,0.00,Acu-Link.com,2013-04-23 14:23:00,
2013-04-23 10:39:00,62.2,49.0,30.01,SE,135,2.2,-999.0,62,-99.99,,,0.00,Acu-Link.com,2013-04-23 14:39:00,
2013-04-23 10:54:00,63.3,49.6,30.01,NE,45,5.3,-999.0,61,-99.99,,,0.00,Acu-Link.com,2013-04-23 14:54:00,
2013-04-23 11:09:00,62.8,49.6,30.01,SE,135,1.7,-999.0,62,-99.99,,,0.00,Acu-Link.com,2013-04-23 15:09:00,
2013-04-23 11:24:00,64.6,49.9,30.02,ENE,67,4.2,-999.0,59,-99.99,,,0.00,Acu-Link.com,2013-04-23 15:24:00,
2013-04-23 11:39:00,64.9,50.2,30.01,SE,135,1.1,-999.0,59,-99.99,,,0.00,Acu-Link.com,2013-04-23 15:39:00,
2013-04-23 11:54:00,67.8,50.5,30.01,ESE,112,2.2,-999.0,54,-99.99,,,0.00,Acu-Link.com,2013-04-23 15:54:00,
2013-04-23 12:10:00,67.8,50.5,30.01,SSE,157,1.1,-999.0,54,-99.99,,,0.00,Acu-Link.com,2013-04-23 16:10:00,
2013-04-23 12:25:00,67.6,49.9,30.00,West,270,2.7,-999.0,53,-99.99,,,0.00,Acu-Link.com,2013-04-23 16:25:00,
2013-04-23 12:40:00,67.6,49.3,30.00,NNE,22,4.2,-999.0,52,-99.99,,,0.00,Acu-Link.com,2013-04-23 16:40:00,
2013-04-23 12:56:00,70.0,50.0,29.98,ENE,67,2.7,-999.0,49,-99.99,,,0.00,Acu-Link.com,2013-04-23 16:56:00,
2013-04-23 13:11:00,68.0,49.2,29.97,SW,225,1.7,-999.0,51,-99.99,,,0.00,Acu-Link.com,2013-04-23 17:11:00,
2013-04-23 13:26:00,70.3,50.2,29.97,ENE,67,3.7,-999.0,49,-99.99,,,0.00,Acu-Link.com,2013-04-23 17:26:00,
2013-04-23 13:41:00,71.6,49.7,29.96,ENE,67,3.2,-999.0,46,-99.99,,,0.00,Acu-Link.com,2013-04-23 17:41:00,
2013-04-23 13:57:00,71.4,50.1,29.95,NE,45,6.3,-999.0,47,-99.99,,,0.00,Acu-Link.com,2013-04-23 17:57:00,
2013-04-23 14:13:00,70.9,49.1,29.96,NNE,22,3.7,-999.0,46,-99.99,,,0.00,Acu-Link.com,2013-04-23 18:13:00,
2013-04-23 14:52:00,74.8,50.2,29.94,NNE,22,3.2,-999.0,42,-99.99,,,0.00,Acu-Link.com,2013-04-23 18:52:00,
2013-04-23 15:12:00,73.4,50.8,29.94,NNE,22,3.7,-999.0,45,-99.99,,,0.00,Acu-Link.com,2013-04-23 19:12:00,
2013-04-23 15:31:00,73.6,50.3,29.93,South,180,1.7,-999.0,44,-99.99,,,0.00,Acu-Link.com,2013-04-23 19:31:00,
2013-04-23 16:15:00,74.5,49.2,29.92,NE,45,5.3,-999.0,41,-99.99,,,0.00,Acu-Link.com,2013-04-23 20:15:00,
2013-04-23 16:32:00,73.9,49.3,29.91,WSW,247,1.7,-999.0,42,-99.99,,,0.00,Acu-Link.com,2013-04-23 20:32:00,
2013-04-23 16:51:00,75.6,49.6,29.90,SW,225,0.0,-999.0,40,-99.99,,,0.00,Acu-Link.com,2013-04-23 20:51:00,
2013-04-23 17:08:00,78.3,50.6,29.90,NE,45,4.7,-999.0,38,-99.99,,,0.00,Acu-Link.com,2013-04-23 21:08:00,
2013-04-23 17:23:00,78.6,50.8,29.90,SSW,202,0.0,-999.0,38,-99.99,,,0.00,Acu-Link.com,2013-04-23 21:23:00,
2013-04-23 17:41:00,77.2,50.3,29.90,ESE,112,0.0,-999.0,39,-99.99,,,0.00,Acu-Link.com,2013-04-23 21:41:00,
2013-04-23 18:01:00,77.0,49.4,29.89,East,90,0.0,-999.0,38,-99.99,,,0.00,Acu-Link.com,2013-04-23 22:01:00,
2013-04-23 18:16:00,77.7,48.6,29.90,East,90,0.0,-999.0,36,-99.99,,,0.00,Acu-Link.com,2013-04-23 22:16:00,
2013-04-23 18:31:00,77.0,49.4,29.89,WSW,247,0.0,-999.0,38,-99.99,,,0.00,Acu-Link.com,2013-04-23 22:31:00,
2013-04-23 18:46:00,78.1,49.7,29.89,ENE,67,0.0,-999.0,37,-99.99,,,0.00,Acu-Link.com,2013-04-23 22:46:00,
2013-04-23 19:01:00,76.3,50.9,29.89,South,180,0.0,-999.0,41,-99.99,,,0.00,Acu-Link.com,2013-04-23 23:01:00,
2013-04-23 19:17:00,74.1,50.8,29.90,ESE,112,0.0,-999.0,44,-99.99,,,0.00,Acu-Link.com,2013-04-23 23:17:00,
2013-04-23 19:32:00,72.3,50.3,29.89,East,90,0.0,-999.0,46,-99.99,,,0.00,Acu-Link.com,2013-04-23 23:32:00,
2013-04-23 19:47:00,70.5,51.0,29.90,East,90,0.0,-999.0,50,-99.99,,,0.00,Acu-Link.com,2013-04-23 23:47:00,
2013-04-23 20:02:00,68.4,51.1,29.90,East,90,0.0,-999.0,54,-99.99,,,0.00,Acu-Link.com,2013-04-24 00:02:00,
2013-04-23 20:17:00,66.7,51.0,29.90,ENE,67,0.0,-999.0,57,-99.99,,,0.00,Acu-Link.com,2013-04-24 00:17:00,
2013-04-23 20:32:00,65.3,51.1,29.91,East,90,0.0,-999.0,60,-99.99,,,0.00,Acu-Link.com,2013-04-24 00:32:00,
2013-04-23 20:47:00,64.0,50.7,29.91,East,90,0.0,-999.0,62,-99.99,,,0.00,Acu-Link.com,2013-04-24 00:47:00,
2013-04-23 21:02:00,63.0,51.5,29.92,NE,45,0.0,-999.0,66,-99.99,,,0.00,Acu-Link.com,2013-04-24 01:02:00,
2013-04-23 21:17:00,61.9,51.2,29.92,ENE,67,0.0,-999.0,68,-99.99,,,0.00,Acu-Link.com,2013-04-24 01:17:00,
2013-04-23 21:33:00,61.3,51.4,29.93,NE,45,0.0,-999.0,70,-99.99,,,0.00,Acu-Link.com,2013-04-24 01:33:00,
2013-04-23 21:48:00,60.8,51.3,29.93,WNW,292,0.0,-999.0,71,-99.99,,,0.00,Acu-Link.com,2013-04-24 01:48:00,
2013-04-23 22:03:00,60.3,51.2,29.93,ENE,67,0.0,-999.0,72,-99.99,,,0.00,Acu-Link.com,2013-04-24 02:03:00,
2013-04-23 22:18:00,60.1,51.4,29.93,South,180,0.0,-999.0,73,-99.99,,,0.00,Acu-Link.com,2013-04-24 02:18:00,
2013-04-23 22:33:00,59.7,51.4,29.94,West,270,0.0,-999.0,74,-99.99,,,0.00,Acu-Link.com,2013-04-24 02:33:00,
2013-04-23 22:48:00,59.4,51.8,29.94,East,90,0.0,-999.0,76,-99.99,,,0.00,Acu-Link.com,2013-04-24 02:48:00,
2013-04-23 23:08:00,58.8,52.0,29.94,East,90,0.0,-999.0,78,-99.99,,,0.00,Acu-Link.com,2013-04-24 03:08:00,
2013-04-23 23:24:00,58.6,52.1,29.94,ESE,112,0.0,-999.0,79,-99.99,,,0.00,Acu-Link.com,2013-04-24 03:24:00,
2013-04-23 23:39:00,58.1,52.3,29.95,ESE,112,0.0,-999.0,81,-99.99,,,0.00,Acu-Link.com,2013-04-24 03:39:00,